createdAt,value
2018-11-07T00:00:20.646Z,7.75
2018-11-07T00:01:30.207Z,7.03
2018-11-07T00:02:40.138Z,7.17
2018-11-07T00:03:49.645Z,6.97
2018-11-07T00:04:59.717Z,7.17
2018-11-07T00:06:16.467Z,7.90
2018-11-07T00:07:26.109Z,6.47
2018-11-07T00:08:35.939Z,7.03
2018-11-07T00:09:45.301Z,7.03
2018-11-07T00:10:55.225Z,7.65
2018-11-07T00:12:04.755Z,7.45
2018-11-07T00:13:14.522Z,6.78
2018-11-07T00:14:24.446Z,6.78
2018-11-07T00:15:34.538Z,6.62
2018-11-07T00:16:44.411Z,7.17
2018-11-07T00:17:54.177Z,7.62
2018-11-07T00:19:04.284Z,7.92
2018-11-07T00:20:14.466Z,8.18
2018-11-07T00:21:24.471Z,7.53
2018-11-07T00:22:34.595Z,8.05
2018-11-07T00:23:44.540Z,6.70
2018-11-07T00:24:54.506Z,6.97
2018-11-07T00:26:04.138Z,7.35
2018-11-07T00:27:14.263Z,7.20
2018-11-07T00:28:24.066Z,8.33
2018-11-07T00:29:34.068Z,7.87
2018-11-07T00:30:44.183Z,7.10
2018-11-07T00:31:53.726Z,7.00
2018-11-07T00:33:03.539Z,6.47
2018-11-07T00:34:13.188Z,7.33
2018-11-07T00:35:22.869Z,7.12
2018-11-07T00:36:32.862Z,6.75
2018-11-07T00:37:43.413Z,7.62
2018-11-07T00:38:53.013Z,7.35
2018-11-07T00:40:02.831Z,8.20
2018-11-07T00:41:12.711Z,7.03
2018-11-07T00:42:22.550Z,6.60
2018-11-07T00:43:32.283Z,7.17
2018-11-07T00:44:41.771Z,6.80
2018-11-07T00:45:51.917Z,6.67
2018-11-07T00:47:01.647Z,6.33
2018-11-07T00:48:11.338Z,6.58
2018-11-07T00:49:20.919Z,7.75
2018-11-07T00:50:30.502Z,7.47
2018-11-07T00:51:40.170Z,6.78
2018-11-07T00:52:49.788Z,6.20
2018-11-07T00:53:59.705Z,7.75
2018-11-07T00:55:09.371Z,6.87
2018-11-07T00:56:19.449Z,7.15
2018-11-07T00:57:29.106Z,7.60
2018-11-07T00:58:39.101Z,6.37
2018-11-07T00:59:48.690Z,6.62
2018-11-07T01:00:58.626Z,7.85
2018-11-07T01:02:08.398Z,6.72
2018-11-07T01:03:21.168Z,8.05
2018-11-07T01:04:31.175Z,6.65
2018-11-07T01:05:40.950Z,7.97
2018-11-07T01:06:50.532Z,7.03
2018-11-07T01:08:00.620Z,7.58
2018-11-07T01:09:11.435Z,7.83
2018-11-07T01:10:21.071Z,6.25
2018-11-07T01:11:30.933Z,7.20
2018-11-07T01:12:41.418Z,7.58
2018-11-07T01:13:51.423Z,7.70
2018-11-07T01:15:01.239Z,6.58
2018-11-07T01:16:11.382Z,8.40
2018-11-07T01:17:21.263Z,7.45
2018-11-07T01:18:30.997Z,7.15
2018-11-07T01:19:41.035Z,7.53
2018-11-07T01:20:50.678Z,7.20
2018-11-07T01:22:00.362Z,6.55
2018-11-07T01:23:10.267Z,7.33
2018-11-07T01:24:19.941Z,6.65
2018-11-07T01:25:29.880Z,6.85
2018-11-07T01:26:39.673Z,6.97
2018-11-07T01:27:49.166Z,7.80
2018-11-07T01:28:59.203Z,7.62
2018-11-07T01:30:10.885Z,6.50
2018-11-07T01:31:20.670Z,6.30
2018-11-07T01:32:30.355Z,7.05
2018-11-07T01:33:40.455Z,7.05
2018-11-07T01:34:50.334Z,6.25
2018-11-07T01:35:59.952Z,7.03
2018-11-07T01:37:09.584Z,6.65
2018-11-07T01:38:19.219Z,6.20
2018-11-07T01:39:29.293Z,7.33
2018-11-07T01:40:39.013Z,6.87
2018-11-07T01:41:48.751Z,6.87
2018-11-07T01:42:58.342Z,6.95
2018-11-07T01:44:08.318Z,7.25
2018-11-07T01:45:18.001Z,7.28
2018-11-07T01:46:27.689Z,7.20
2018-11-07T01:47:37.442Z,6.78
2018-11-07T01:48:47.254Z,6.85
2018-11-07T01:49:57.064Z,6.55
2018-11-07T01:51:07.168Z,5.95
2018-11-07T01:52:17.158Z,6.33
2018-11-07T01:53:26.942Z,7.85
2018-11-07T01:54:36.545Z,6.75
2018-11-07T01:55:46.433Z,6.87
2018-11-07T01:56:56.355Z,6.30
2018-11-07T01:58:06.026Z,7.50
2018-11-07T01:59:15.876Z,6.80
2018-11-07T02:00:25.541Z,7.45
2018-11-07T02:01:35.295Z,6.58
2018-11-07T02:02:45.237Z,8.60
2018-11-07T02:03:54.994Z,6.87
2018-11-07T02:05:05.447Z,6.58
2018-11-07T02:06:14.945Z,7.03
2018-11-07T02:07:24.895Z,7.10
2018-11-07T02:08:35.014Z,7.30
2018-11-07T02:09:44.486Z,7.42
2018-11-07T02:10:54.268Z,7.15
2018-11-07T02:12:04.131Z,7.50
2018-11-07T02:13:13.885Z,6.22
2018-11-07T02:14:23.805Z,7.10
2018-11-07T02:15:33.516Z,6.05
2018-11-07T02:16:43.167Z,6.37
2018-11-07T02:17:52.945Z,7.50
2018-11-07T02:19:02.762Z,6.40
2018-11-07T02:20:12.790Z,7.67
2018-11-07T02:21:22.684Z,6.78
2018-11-07T02:22:32.510Z,6.12
2018-11-07T02:23:42.144Z,7.00
2018-11-07T02:24:51.898Z,7.03
2018-11-07T02:26:01.681Z,7.17
2018-11-07T02:27:11.573Z,6.35
2018-11-07T02:28:21.161Z,6.90
2018-11-07T02:29:30.950Z,6.80
2018-11-07T02:30:40.704Z,6.92
2018-11-07T02:31:50.439Z,7.12
2018-11-07T02:33:00.117Z,5.62
2018-11-07T02:34:10.226Z,6.50
2018-11-07T02:35:20.231Z,6.50
2018-11-07T02:36:30.241Z,6.85
2018-11-07T02:37:40.267Z,6.00
2018-11-07T02:38:50.126Z,6.78
2018-11-07T02:40:00.302Z,7.00
2018-11-07T02:41:09.906Z,6.50
2018-11-07T02:42:19.780Z,6.95
2018-11-07T02:43:29.763Z,6.35
2018-11-07T02:44:39.601Z,6.85
2018-11-07T02:45:49.398Z,6.83
2018-11-07T02:46:58.916Z,6.80
2018-11-07T02:48:08.906Z,7.40
2018-11-07T02:49:18.680Z,6.92
2018-11-07T02:50:28.620Z,6.40
2018-11-07T02:51:38.434Z,6.58
2018-11-07T02:52:47.968Z,6.40
2018-11-07T02:53:57.793Z,7.70
2018-11-07T02:55:07.758Z,6.75
2018-11-07T02:56:17.330Z,6.75
2018-11-07T02:57:27.059Z,4.95
2018-11-07T02:58:36.840Z,6.62
2018-11-07T02:59:46.584Z,6.70
2018-11-07T03:00:56.299Z,6.62
2018-11-07T03:02:06.256Z,7.50
2018-11-07T03:03:15.737Z,7.22
2018-11-07T03:04:25.183Z,7.33
2018-11-07T03:05:34.677Z,6.78
2018-11-07T03:06:44.292Z,6.35
2018-11-07T03:07:54.062Z,7.17
2018-11-07T03:09:05.238Z,7.30
2018-11-07T03:10:15.146Z,7.58
2018-11-07T03:11:24.806Z,6.75
2018-11-07T03:12:34.722Z,6.60
2018-11-07T03:13:44.540Z,6.58
2018-11-07T03:14:54.521Z,6.42
2018-11-07T03:16:04.152Z,6.37
2018-11-07T03:17:14.080Z,6.62
2018-11-07T03:18:23.659Z,6.08
2018-11-07T03:19:33.787Z,5.92
2018-11-07T03:20:43.761Z,7.87
2018-11-07T03:21:53.706Z,5.78
2018-11-07T03:23:03.390Z,7.30
2018-11-07T03:24:13.157Z,6.35
2018-11-07T03:25:22.865Z,6.47
2018-11-07T03:26:32.560Z,6.30
2018-11-07T03:27:42.390Z,7.40
2018-11-07T03:28:52.379Z,6.22
2018-11-07T03:30:02.281Z,5.65
2018-11-07T03:31:12.219Z,5.87
2018-11-07T03:32:21.756Z,7.10
2018-11-07T03:33:31.730Z,6.55
2018-11-07T03:34:41.568Z,6.58
2018-11-07T03:35:51.219Z,6.62
2018-11-07T03:37:01.152Z,5.95
2018-11-07T03:38:10.820Z,6.45
2018-11-07T03:39:20.748Z,7.33
2018-11-07T03:40:30.467Z,6.17
2018-11-07T03:41:40.525Z,6.95
2018-11-07T03:42:50.253Z,6.08
2018-11-07T03:43:59.889Z,5.80
2018-11-07T03:45:09.719Z,6.55
2018-11-07T03:46:19.490Z,6.70
2018-11-07T03:47:29.117Z,6.80
2018-11-07T03:48:38.900Z,6.05
2018-11-07T03:49:48.539Z,6.85
2018-11-07T03:50:58.620Z,5.33
2018-11-07T03:52:08.470Z,7.17
2018-11-07T03:53:18.327Z,6.33
2018-11-07T03:54:28.245Z,5.90
2018-11-07T03:55:37.907Z,7.62
2018-11-07T03:56:50.609Z,6.17
2018-11-07T03:58:00.521Z,6.15
2018-11-07T03:59:10.350Z,6.47
2018-11-07T04:00:20.161Z,6.85
2018-11-07T04:01:30.062Z,6.10
2018-11-07T04:02:40.394Z,7.35
2018-11-07T04:03:50.238Z,5.87
2018-11-07T04:05:00.130Z,6.33
2018-11-07T04:06:09.813Z,6.42
2018-11-07T04:07:19.535Z,5.70
2018-11-07T04:08:29.153Z,7.12
2018-11-07T04:09:39.026Z,5.95
2018-11-07T04:10:49.060Z,6.35
2018-11-07T04:11:58.969Z,6.75
2018-11-07T04:13:08.913Z,6.50
2018-11-07T04:14:18.510Z,6.05
2018-11-07T04:15:28.128Z,5.87
2018-11-07T04:16:37.949Z,6.58
2018-11-07T04:17:47.859Z,6.15
2018-11-07T04:18:57.906Z,6.08
2018-11-07T04:20:08.457Z,6.67
2018-11-07T04:21:18.206Z,6.55
2018-11-07T04:22:27.919Z,6.72
2018-11-07T04:23:37.790Z,5.83
2018-11-07T04:24:47.428Z,5.75
2018-11-07T04:25:56.969Z,6.47
2018-11-07T04:27:06.806Z,6.70
2018-11-07T04:28:16.716Z,6.90
2018-11-07T04:29:26.440Z,7.08
2018-11-07T04:30:36.096Z,6.50
2018-11-07T04:31:45.778Z,7.15
2018-11-07T04:32:55.593Z,5.75
2018-11-07T04:34:05.191Z,6.55
2018-11-07T04:35:14.824Z,5.95
2018-11-07T04:36:25.094Z,6.45
2018-11-07T04:37:34.695Z,8.03
2018-11-07T04:38:44.527Z,6.60
2018-11-07T04:39:54.024Z,6.60
2018-11-07T04:41:04.072Z,6.08
2018-11-07T04:42:13.975Z,5.87
2018-11-07T04:43:23.689Z,6.35
2018-11-07T04:44:33.611Z,6.70
2018-11-07T04:45:43.238Z,6.45
2018-11-07T04:46:53.147Z,6.83
2018-11-07T04:48:02.857Z,5.45
2018-11-07T04:49:12.627Z,6.17
2018-11-07T04:50:22.482Z,6.10
2018-11-07T04:51:32.200Z,7.42
2018-11-07T04:52:41.712Z,5.92
2018-11-07T04:53:51.565Z,6.55
2018-11-07T04:55:01.180Z,5.92
2018-11-07T04:56:11.544Z,6.75
2018-11-07T04:57:21.336Z,7.30
2018-11-07T04:58:31.394Z,6.03
2018-11-07T04:59:41.329Z,5.58
2018-11-07T05:00:50.789Z,7.10
2018-11-07T05:02:00.691Z,6.15
2018-11-07T05:03:10.478Z,6.03
2018-11-07T05:04:20.187Z,7.25
2018-11-07T05:05:30.137Z,6.92
2018-11-07T05:06:39.998Z,5.62
2018-11-07T05:07:49.717Z,6.90
2018-11-07T05:08:59.395Z,6.67
2018-11-07T05:10:10.065Z,6.90
2018-11-07T05:11:19.680Z,6.12
2018-11-07T05:12:29.468Z,5.67
2018-11-07T05:13:39.166Z,6.37
2018-11-07T05:14:48.976Z,5.90
2018-11-07T05:15:58.763Z,6.92
2018-11-07T05:17:08.532Z,6.40
2018-11-07T05:18:18.514Z,4.92
2018-11-07T05:19:28.082Z,6.60
2018-11-07T05:20:37.968Z,5.75
2018-11-07T05:21:47.655Z,5.25
2018-11-07T05:22:57.374Z,6.62
2018-11-07T05:24:07.026Z,6.28
2018-11-07T05:25:16.750Z,6.15
2018-11-07T05:26:26.676Z,6.67
2018-11-07T05:27:36.102Z,6.05
2018-11-07T05:28:45.972Z,5.75
2018-11-07T05:29:55.762Z,6.83
2018-11-07T05:31:05.502Z,4.95
2018-11-07T05:32:15.383Z,6.22
2018-11-07T05:33:25.158Z,6.50
2018-11-07T05:34:35.198Z,6.37
2018-11-07T05:35:44.661Z,5.87
2018-11-07T05:36:54.303Z,5.92
2018-11-07T05:38:04.318Z,6.45
2018-11-07T05:39:13.978Z,5.72
2018-11-07T05:40:24.041Z,6.37
2018-11-07T05:41:33.869Z,6.20
2018-11-07T05:42:43.717Z,5.87
2018-11-07T05:43:53.481Z,5.60
2018-11-07T05:45:03.798Z,6.30
2018-11-07T05:46:13.401Z,6.22
2018-11-07T05:47:23.502Z,5.60
2018-11-07T05:48:33.589Z,6.85
2018-11-07T05:49:43.428Z,6.45
2018-11-07T05:50:53.320Z,6.30
2018-11-07T05:52:03.347Z,6.30
2018-11-07T05:53:13.041Z,5.83
2018-11-07T05:54:22.730Z,6.40
2018-11-07T05:55:32.485Z,7.40
2018-11-07T05:56:42.037Z,6.67
2018-11-07T05:57:51.705Z,6.65
2018-11-07T05:59:01.339Z,6.55
2018-11-07T06:00:12.050Z,6.40
2018-11-07T06:01:21.648Z,5.70
2018-11-07T06:02:31.190Z,7.05
2018-11-07T06:03:40.773Z,6.20
2018-11-07T06:04:50.662Z,7.22
2018-11-07T06:06:00.390Z,6.25
2018-11-07T06:07:09.994Z,5.67
2018-11-07T06:08:19.814Z,6.70
2018-11-07T06:09:29.544Z,5.70
2018-11-07T06:10:39.484Z,5.83
2018-11-07T06:11:49.139Z,6.28
2018-11-07T06:12:58.882Z,6.20
2018-11-07T06:14:09.465Z,6.05
2018-11-07T06:15:18.991Z,6.75
2018-11-07T06:16:28.780Z,5.80
2018-11-07T06:17:38.639Z,6.22
2018-11-07T06:18:48.425Z,5.90
2018-11-07T06:19:58.141Z,6.20
2018-11-07T06:21:07.896Z,5.80
2018-11-07T06:22:17.570Z,6.60
2018-11-07T06:23:27.265Z,6.45
2018-11-07T06:24:36.779Z,5.53
2018-11-07T06:25:46.731Z,6.50
2018-11-07T06:26:56.201Z,6.40
2018-11-07T06:28:05.801Z,6.15
2018-11-07T06:29:15.562Z,6.95
2018-11-07T06:30:25.370Z,6.50
2018-11-07T06:31:35.345Z,7.42
2018-11-07T06:32:45.085Z,6.22
2018-11-07T06:33:54.851Z,7.08
2018-11-07T06:35:04.485Z,7.12
2018-11-07T06:36:14.053Z,6.95
2018-11-07T06:37:23.934Z,6.45
2018-11-07T06:38:33.842Z,5.60
2018-11-07T06:39:43.864Z,6.47
2018-11-07T06:40:53.665Z,6.45
2018-11-07T06:42:03.281Z,6.50
2018-11-07T06:43:12.866Z,6.65
2018-11-07T06:44:22.624Z,7.00
2018-11-07T06:45:32.449Z,6.12
2018-11-07T06:46:42.217Z,7.90
2018-11-07T06:47:52.297Z,6.72
2018-11-07T06:49:02.176Z,6.50
2018-11-07T06:50:14.366Z,6.05
2018-11-07T06:51:23.783Z,7.25
2018-11-07T06:52:33.425Z,7.12
2018-11-07T06:53:43.251Z,6.72
2018-11-07T06:54:52.823Z,7.00
2018-11-07T06:56:02.753Z,7.03
2018-11-07T06:57:12.185Z,6.87
2018-11-07T06:58:21.862Z,6.53
2018-11-07T06:59:31.808Z,7.15
2018-11-07T07:00:41.535Z,7.35
2018-11-07T07:01:51.192Z,7.10
2018-11-07T07:03:01.420Z,6.00
2018-11-07T07:04:11.142Z,7.75
2018-11-07T07:05:20.917Z,6.70
2018-11-07T07:06:30.665Z,6.92
2018-11-07T07:07:40.311Z,7.35
2018-11-07T07:08:49.929Z,5.97
2018-11-07T07:09:59.754Z,6.75
2018-11-07T07:11:09.669Z,5.55
2018-11-07T07:12:19.701Z,6.83
2018-11-07T07:13:29.352Z,6.25
2018-11-07T07:14:39.264Z,6.85
2018-11-07T07:15:48.954Z,6.78
2018-11-07T07:16:58.938Z,7.72
2018-11-07T07:18:08.681Z,7.03
2018-11-07T07:19:18.632Z,7.95
2018-11-07T07:20:28.264Z,7.87
2018-11-07T07:21:37.851Z,7.40
2018-11-07T07:22:48.317Z,6.37
2018-11-07T07:23:58.052Z,6.58
2018-11-07T07:25:08.620Z,8.00
2018-11-07T07:26:18.564Z,6.22
2018-11-07T07:27:28.341Z,7.10
2018-11-07T07:28:38.045Z,7.97
2018-11-07T07:29:47.624Z,9.28
2018-11-07T07:30:57.502Z,7.95
2018-11-07T07:32:07.277Z,8.10
2018-11-07T07:33:16.836Z,7.25
2018-11-07T07:34:26.357Z,6.65
2018-11-07T07:35:35.926Z,8.73
2018-11-07T07:36:46.035Z,6.78
2018-11-07T07:37:55.841Z,7.85
2018-11-07T07:39:08.466Z,6.60
2018-11-07T07:40:17.954Z,7.25
2018-11-07T07:41:27.639Z,6.37
2018-11-07T07:42:38.268Z,6.50
2018-11-07T07:43:47.963Z,7.78
2018-11-07T07:44:57.812Z,7.22
2018-11-07T07:46:07.542Z,7.67
2018-11-07T07:47:17.025Z,7.53
2018-11-07T07:48:26.812Z,6.97
2018-11-07T07:49:36.570Z,7.50
2018-11-07T07:50:46.342Z,6.97
2018-11-07T07:51:55.978Z,7.30
2018-11-07T07:53:05.953Z,8.50
2018-11-07T07:54:15.758Z,7.78
2018-11-07T07:55:25.367Z,8.35
2018-11-07T07:56:35.090Z,7.78
2018-11-07T07:57:45.056Z,6.80
2018-11-07T07:58:54.626Z,8.48
2018-11-07T08:00:04.478Z,7.22
2018-11-07T08:01:14.103Z,7.58
2018-11-07T08:02:23.768Z,8.10
2018-11-07T08:03:33.471Z,7.45
2018-11-07T08:04:43.285Z,7.75
2018-11-07T08:05:53.102Z,7.55
2018-11-07T08:07:03.037Z,8.40
2018-11-07T08:08:12.614Z,7.15
2018-11-07T08:09:22.473Z,8.18
2018-11-07T08:10:32.128Z,8.28
2018-11-07T08:11:42.142Z,8.25
2018-11-07T08:12:52.063Z,8.05
2018-11-07T08:14:01.633Z,7.90
2018-11-07T08:15:11.993Z,8.33
2018-11-07T08:16:21.568Z,7.67
2018-11-07T08:17:31.165Z,7.05
2018-11-07T08:18:40.998Z,6.92
2018-11-07T08:19:50.943Z,6.97
2018-11-07T08:21:00.784Z,8.05
2018-11-07T08:22:11.407Z,7.42
2018-11-07T08:23:20.958Z,8.08
2018-11-07T08:24:30.761Z,8.73
2018-11-07T08:25:40.510Z,7.20
2018-11-07T08:26:50.262Z,7.58
2018-11-07T08:28:00.202Z,7.37
2018-11-07T08:29:09.876Z,7.65
2018-11-07T08:30:20.853Z,7.92
2018-11-07T08:31:31.042Z,8.20
2018-11-07T08:32:40.818Z,7.37
2018-11-07T08:33:50.471Z,8.95
2018-11-07T08:35:00.355Z,7.80
2018-11-07T08:36:10.140Z,8.30
2018-11-07T08:37:20.002Z,8.15
2018-11-07T08:38:29.819Z,8.80
2018-11-07T08:39:39.503Z,7.85
2018-11-07T08:40:49.348Z,7.92
2018-11-07T08:41:58.972Z,8.70
2018-11-07T08:43:08.490Z,9.08
2018-11-07T08:44:18.087Z,7.62
2018-11-07T08:45:27.963Z,11.83
2018-11-07T08:46:37.826Z,10.50
2018-11-07T08:47:47.952Z,9.30
2018-11-07T08:48:57.678Z,8.45
2018-11-07T08:50:10.934Z,7.97
2018-11-07T08:51:20.554Z,7.60
2018-11-07T08:52:30.550Z,8.50
2018-11-07T08:53:40.348Z,10.00
2018-11-07T08:54:50.135Z,10.45
2018-11-07T08:55:59.752Z,9.10
2018-11-07T08:57:09.185Z,8.28
2018-11-07T08:58:19.144Z,10.45
2018-11-07T08:59:28.987Z,9.13
2018-11-07T09:00:39.183Z,9.08
2018-11-07T09:01:49.080Z,9.58
2018-11-07T09:02:58.760Z,9.43
2018-11-07T09:04:08.416Z,8.10
2018-11-07T09:05:19.106Z,9.35
2018-11-07T09:06:28.778Z,10.82
2018-11-07T09:07:38.526Z,10.13
2018-11-07T09:08:48.202Z,10.35
2018-11-07T09:09:57.945Z,10.13
2018-11-07T09:11:07.696Z,8.98
2018-11-07T09:12:17.446Z,8.55
2018-11-07T09:13:26.906Z,7.78
2018-11-07T09:14:36.803Z,9.70
2018-11-07T09:15:46.500Z,8.55
2018-11-07T09:16:56.346Z,9.08
2018-11-07T09:18:05.891Z,9.38
2018-11-07T09:19:15.848Z,8.43
2018-11-07T09:20:25.446Z,8.30
2018-11-07T09:21:35.192Z,9.03
2018-11-07T09:22:45.188Z,11.25
2018-11-07T09:23:54.908Z,9.70
2018-11-07T09:25:04.598Z,10.20
2018-11-07T09:26:14.425Z,8.93
2018-11-07T09:27:24.233Z,8.83
2018-11-07T09:28:33.858Z,7.90
2018-11-07T09:29:43.457Z,8.78
2018-11-07T09:30:53.521Z,9.93
2018-11-07T09:32:03.743Z,10.05
2018-11-07T09:33:13.486Z,10.25
2018-11-07T09:34:23.508Z,8.30
2018-11-07T09:35:33.275Z,8.45
2018-11-07T09:36:42.941Z,8.50
2018-11-07T09:37:52.823Z,9.30
2018-11-07T09:39:02.675Z,9.65
2018-11-07T09:40:14.034Z,9.70
2018-11-07T09:41:23.677Z,8.88
2018-11-07T09:42:33.613Z,10.20
2018-11-07T09:43:43.460Z,9.35
2018-11-07T09:44:52.962Z,9.15
2018-11-07T09:46:03.031Z,8.85
2018-11-07T09:47:12.643Z,8.70
2018-11-07T09:48:22.552Z,9.43
2018-11-07T09:49:32.421Z,9.78
2018-11-07T09:50:41.790Z,8.50
2018-11-07T09:51:51.746Z,8.75
2018-11-07T09:53:01.690Z,9.45
2018-11-07T09:54:11.326Z,8.90
2018-11-07T09:55:21.798Z,10.68
2018-11-07T09:56:31.463Z,10.40
2018-11-07T09:57:41.371Z,11.03
2018-11-07T09:58:51.034Z,10.28
2018-11-07T10:00:01.165Z,10.10
2018-11-07T10:01:10.908Z,10.80
2018-11-07T10:02:20.651Z,10.20
2018-11-07T10:03:30.383Z,10.03
2018-11-07T10:04:40.209Z,10.28
2018-11-07T10:05:52.902Z,11.30
2018-11-07T10:07:02.767Z,9.65
2018-11-07T10:08:12.445Z,11.48
2018-11-07T10:09:22.224Z,9.95
2018-11-07T10:10:31.967Z,10.30
2018-11-07T10:11:41.552Z,12.65
2018-11-07T10:12:51.513Z,12.53
2018-11-07T10:14:01.377Z,12.05
2018-11-07T10:15:11.698Z,10.63
2018-11-07T10:16:21.319Z,10.58
2018-11-07T10:17:30.843Z,11.65
2018-11-07T10:18:40.593Z,9.85
2018-11-07T10:19:50.302Z,12.68
2018-11-07T10:21:00.346Z,11.15
2018-11-07T10:22:10.315Z,10.43
2018-11-07T10:23:20.296Z,11.12
2018-11-07T10:24:30.081Z,10.58
2018-11-07T10:25:39.910Z,10.20
2018-11-07T10:26:49.698Z,11.55
2018-11-07T10:27:59.461Z,11.30
2018-11-07T10:29:09.259Z,10.35
2018-11-07T10:30:19.941Z,10.80
2018-11-07T10:31:29.674Z,9.48
2018-11-07T10:32:39.693Z,10.10
2018-11-07T10:33:52.969Z,10.88
2018-11-07T10:35:03.023Z,10.20
2018-11-07T10:36:12.874Z,9.50
2018-11-07T10:37:32.142Z,11.70
2018-11-07T10:38:32.977Z,10.03
2018-11-07T10:39:42.793Z,10.85
2018-11-07T10:40:52.619Z,11.35
2018-11-07T10:42:02.273Z,10.80
2018-11-07T10:43:12.002Z,9.70
2018-11-07T10:44:21.920Z,10.58
2018-11-07T10:45:31.597Z,10.82
2018-11-07T10:46:41.347Z,10.20
2018-11-07T10:47:51.532Z,10.45
2018-11-07T10:49:01.279Z,11.10
2018-11-07T10:50:12.256Z,11.65
2018-11-07T10:51:21.818Z,9.50
2018-11-07T10:52:31.455Z,11.05
2018-11-07T10:53:41.379Z,11.55
2018-11-07T10:54:50.786Z,10.40
2018-11-07T10:56:00.642Z,9.85
2018-11-07T10:57:10.715Z,9.95
2018-11-07T10:58:20.541Z,9.05
2018-11-07T10:59:30.590Z,10.10
2018-11-07T11:00:45.624Z,10.38
2018-11-07T11:02:00.639Z,10.80
2018-11-07T11:03:15.771Z,10.72
2018-11-07T11:04:25.613Z,9.48
2018-11-07T11:05:35.234Z,10.15
2018-11-07T11:06:44.970Z,10.23
2018-11-07T11:07:54.787Z,10.70
2018-11-07T11:09:05.394Z,11.10
2018-11-07T11:10:15.364Z,9.50
2018-11-07T11:11:25.265Z,9.93
2018-11-07T11:12:34.855Z,10.35
2018-11-07T11:13:44.521Z,9.50
2018-11-07T11:14:54.003Z,10.68
2018-11-07T11:16:04.070Z,9.23
2018-11-07T11:17:14.027Z,10.25
2018-11-07T11:18:23.743Z,9.75
2018-11-07T11:19:33.737Z,11.05
2018-11-07T11:20:43.430Z,9.38
2018-11-07T11:21:53.025Z,10.15
2018-11-07T11:23:03.151Z,10.93
2018-11-07T11:24:12.875Z,10.48
2018-11-07T11:25:22.771Z,8.88
2018-11-07T11:26:32.600Z,9.40
2018-11-07T11:27:42.191Z,8.93
2018-11-07T11:28:51.859Z,9.50
2018-11-07T11:30:01.501Z,9.40
2018-11-07T11:31:11.447Z,8.98
2018-11-07T11:32:21.334Z,8.68
2018-11-07T11:33:31.069Z,9.50
2018-11-07T11:34:40.878Z,8.98
2018-11-07T11:35:50.561Z,9.55
2018-11-07T11:37:00.374Z,8.60
2018-11-07T11:38:10.066Z,9.38
2018-11-07T11:39:19.906Z,8.80
2018-11-07T11:40:29.565Z,8.28
2018-11-07T11:41:39.605Z,9.20
2018-11-07T11:42:49.282Z,8.80
2018-11-07T11:43:58.797Z,9.08
2018-11-07T11:45:10.343Z,9.13
2018-11-07T11:46:19.941Z,9.70
2018-11-07T11:47:29.750Z,9.15
2018-11-07T11:48:39.406Z,7.90
2018-11-07T11:49:49.137Z,8.35
2018-11-07T11:50:58.844Z,8.65
2018-11-07T11:52:08.385Z,7.92
2018-11-07T11:53:18.048Z,7.97
2018-11-07T11:54:27.827Z,9.43
2018-11-07T11:55:37.549Z,7.03
2018-11-07T11:56:47.291Z,8.55
2018-11-07T11:57:57.286Z,6.92
2018-11-07T11:59:07.153Z,7.95
2018-11-07T12:00:18.221Z,8.50
2018-11-07T12:01:27.747Z,8.28
2018-11-07T12:02:37.704Z,8.05
2018-11-07T12:03:47.446Z,6.58
2018-11-07T12:04:57.275Z,7.47
2018-11-07T12:06:07.052Z,6.40
2018-11-07T12:07:16.730Z,7.85
2018-11-07T12:08:26.542Z,8.58
2018-11-07T12:09:36.474Z,8.58
2018-11-07T12:10:46.382Z,8.10
2018-11-07T12:11:56.060Z,7.05
2018-11-07T12:13:06.349Z,7.95
2018-11-07T12:14:15.943Z,8.60
2018-11-07T12:15:26.904Z,8.95
2018-11-07T12:16:36.603Z,7.90
2018-11-07T12:17:46.224Z,7.65
2018-11-07T12:18:55.883Z,7.97
2018-11-07T12:20:06.201Z,8.68
2018-11-07T12:21:16.029Z,9.60
2018-11-07T12:22:25.782Z,7.85
2018-11-07T12:23:35.578Z,7.50
2018-11-07T12:24:45.158Z,8.23
2018-11-07T12:25:54.994Z,9.00
2018-11-07T12:27:04.898Z,7.80
2018-11-07T12:28:14.628Z,7.55
2018-11-07T12:29:24.735Z,8.30
2018-11-07T12:30:34.452Z,10.55
2018-11-07T12:31:44.275Z,7.55
2018-11-07T12:32:55.081Z,8.25
2018-11-07T12:34:04.898Z,8.48
2018-11-07T12:35:15.266Z,8.35
2018-11-07T12:36:24.888Z,8.38
2018-11-07T12:37:34.533Z,9.18
2018-11-07T12:38:44.259Z,8.80
2018-11-07T12:39:53.990Z,7.85
2018-11-07T12:41:03.926Z,9.13
2018-11-07T12:42:13.947Z,9.55
2018-11-07T12:43:23.659Z,9.60
2018-11-07T12:44:33.400Z,8.58
2018-11-07T12:45:49.825Z,8.78
2018-11-07T12:46:59.662Z,8.93
2018-11-07T12:48:09.330Z,8.10
2018-11-07T12:49:18.902Z,8.80
2018-11-07T12:50:28.724Z,9.00
2018-11-07T12:51:38.498Z,9.18
2018-11-07T12:52:48.452Z,10.63
2018-11-07T12:53:58.050Z,10.13
2018-11-07T12:55:09.176Z,10.30
2018-11-07T12:56:18.993Z,11.43
2018-11-07T12:57:28.815Z,10.43
2018-11-07T12:58:38.519Z,11.78
2018-11-07T12:59:48.262Z,12.10
2018-11-07T13:00:57.885Z,11.78
2018-11-07T13:02:07.666Z,11.43
2018-11-07T13:03:17.598Z,10.38
2018-11-07T13:04:27.633Z,12.68
2018-11-07T13:05:37.609Z,10.55
2018-11-07T13:06:47.846Z,10.93
2018-11-07T13:07:58.266Z,11.73
2018-11-07T13:09:09.725Z,12.20
2018-11-07T13:10:20.665Z,10.58
2018-11-07T13:11:30.526Z,11.48
2018-11-07T13:12:40.665Z,10.05
2018-11-07T13:13:50.420Z,10.72
2018-11-07T13:15:00.182Z,10.53
2018-11-07T13:16:10.025Z,10.45
2018-11-07T13:17:19.912Z,10.25
2018-11-07T13:18:29.750Z,10.48
2018-11-07T13:19:39.493Z,10.68
2018-11-07T13:20:49.169Z,10.32
2018-11-07T13:21:58.784Z,10.72
2018-11-07T13:23:08.501Z,10.70
2018-11-07T13:24:18.365Z,10.25
2018-11-07T13:25:28.179Z,9.25
2018-11-07T13:26:37.853Z,10.88
2018-11-07T13:27:47.856Z,9.68
2018-11-07T13:28:57.466Z,10.32
2018-11-07T13:30:10.141Z,10.68
2018-11-07T13:31:19.774Z,11.97
2018-11-07T13:32:29.235Z,11.18
2018-11-07T13:33:39.023Z,11.90
2018-11-07T13:34:48.896Z,10.55
2018-11-07T13:35:58.649Z,10.32
2018-11-07T13:37:08.521Z,11.28
2018-11-07T13:38:18.441Z,10.43
2018-11-07T13:39:28.078Z,10.70
2018-11-07T13:40:37.729Z,10.30
2018-11-07T13:41:47.573Z,11.73
2018-11-07T13:42:57.260Z,9.35
2018-11-07T13:44:16.854Z,9.43
2018-11-07T13:45:26.811Z,10.78
2018-11-07T13:46:36.277Z,9.75
2018-11-07T13:47:47.505Z,11.10
2018-11-07T13:48:57.159Z,10.68
2018-11-07T13:50:07.020Z,10.40
2018-11-07T13:51:16.799Z,10.00
2018-11-07T13:52:26.592Z,9.35
2018-11-07T13:53:36.454Z,10.60
2018-11-07T13:54:46.334Z,10.10
2018-11-07T13:55:56.065Z,11.45
2018-11-07T13:57:06.573Z,9.53
2018-11-07T13:58:16.388Z,11.80
2018-11-07T13:59:25.993Z,11.38
2018-11-07T14:00:35.968Z,11.30
2018-11-07T14:01:45.685Z,10.28
2018-11-07T14:02:55.161Z,10.15
2018-11-07T14:04:06.440Z,10.88
2018-11-07T14:05:16.107Z,10.60
2018-11-07T14:06:26.049Z,11.68
2018-11-07T14:07:35.784Z,10.20
2018-11-07T14:08:45.665Z,9.85
2018-11-07T14:09:55.366Z,11.00
2018-11-07T14:11:05.433Z,11.90
2018-11-07T14:12:15.269Z,10.80
2018-11-07T14:13:25.319Z,9.48
2018-11-07T14:14:34.968Z,10.20
2018-11-07T14:15:44.671Z,9.93
2018-11-07T14:16:54.682Z,9.45
2018-11-07T14:18:04.281Z,11.05
2018-11-07T14:19:14.022Z,11.43
2018-11-07T14:20:23.880Z,10.72
2018-11-07T14:21:33.674Z,11.48
2018-11-07T14:22:43.511Z,11.05
2018-11-07T14:23:52.987Z,11.68
2018-11-07T14:25:02.915Z,12.33
2018-11-07T14:26:12.387Z,10.70
2018-11-07T14:27:22.313Z,11.78
2018-11-07T14:28:32.055Z,11.57
2018-11-07T14:29:41.885Z,10.35
2018-11-07T14:30:51.648Z,9.50
2018-11-07T14:32:01.343Z,10.63
2018-11-07T14:33:10.968Z,9.63
2018-11-07T14:34:20.657Z,11.05
2018-11-07T14:35:30.250Z,9.53
2018-11-07T14:36:40.046Z,10.63
2018-11-07T14:37:49.821Z,10.23
2018-11-07T14:39:00.263Z,11.55
2018-11-07T14:40:10.120Z,10.35
2018-11-07T14:41:20.034Z,9.15
2018-11-07T14:42:30.035Z,11.18
2018-11-07T14:43:39.898Z,10.78
2018-11-07T14:44:49.981Z,11.55
2018-11-07T14:45:59.899Z,10.55
2018-11-07T14:47:09.903Z,9.60
2018-11-07T14:48:19.593Z,10.85
2018-11-07T14:49:29.461Z,11.30
2018-11-07T14:50:39.158Z,11.60
2018-11-07T14:51:48.836Z,11.12
2018-11-07T14:52:58.809Z,11.40
2018-11-07T14:54:08.589Z,10.40
2018-11-07T14:55:18.518Z,11.30
2018-11-07T14:56:27.993Z,11.30
2018-11-07T14:57:37.740Z,10.90
2018-11-07T14:58:47.644Z,10.82
2018-11-07T14:59:57.346Z,10.65
2018-11-07T15:01:07.344Z,12.35
2018-11-07T15:02:17.100Z,12.73
2018-11-07T15:03:26.765Z,11.70
2018-11-07T15:04:36.649Z,12.20
2018-11-07T15:05:46.276Z,11.60
2018-11-07T15:06:55.986Z,12.65
2018-11-07T15:08:05.645Z,10.15
2018-11-07T15:09:15.442Z,10.23
2018-11-07T15:10:25.093Z,11.78
2018-11-07T15:11:34.816Z,11.30
2018-11-07T15:12:44.554Z,11.35
2018-11-07T15:13:54.632Z,9.90
2018-11-07T15:15:04.844Z,12.55
2018-11-07T15:16:14.926Z,12.58
2018-11-07T15:17:24.589Z,11.35
2018-11-07T15:18:34.455Z,10.70
2018-11-07T15:19:44.185Z,11.40
2018-11-07T15:20:54.150Z,11.93
2018-11-07T15:22:03.735Z,13.05
2018-11-07T15:23:13.510Z,12.37